Impacts METAR Board
IDs:

KDEN - Denver Intl, CO, US

Updated at: 2000 UTC 15 Jun 2019
Potential Impact None Slight Moderate High
Time 15/08Z 15/09Z 15/10Z 15/11Z 15/12Z 15/13Z 15/14Z 15/15Z 15/16Z 15/17Z 15/18Z 15/19Z 15/20Z
Temp59 53 51 54 55 59 67 70 72 73 75 77 78
Dewpt47 48 46 44 45 46 45 42 43 44 42 42 42
Altim29.98 29.98 29.98 29.99 30.02 30.04 30.06 30.07 30.07 30.08 30.08 30.06 30.06
VIS10 10 10 10 10 10 10 10 10 10 10 10 10
CIG-- -- -- -- -- -- -- -- -- 220 220 220 200
CoverSCTFEWSCTSCTSCTSCTSCTSCTSCTBKNBKNBKNBKN
FltCatVFRVFRVFRVFRVFRVFRVFRVFRVFRVFRVFRVFRVFR
WX--------------------------
WDir200130160190210190280202030204020
WSpd8 6 9 8 8 3 3 11 12 12 8 9 10
WGst-- -- -- -- -- -- -- -- -- 18 16 -- 16
Raw hourly METARs
KDEN 150753Z 20008KT 10SM FEW080 SCT120 SCT220 15/08 A2998 RMK AO2 SLP073 VIRGA T01500083 $
KDEN 150853Z 13006KT 10SM FEW080 FEW220 12/09 A2998 RMK AO2 SLP080 T01170089 56004 $
KDEN 150953Z 16009KT 10SM FEW080 SCT220 11/08 A2998 RMK AO2 SLP093 T01060078 $
KDEN 151053Z 19008KT 10SM FEW180 SCT220 12/07 A2999 RMK AO2 SLP088 T01220067 $
KDEN 151153Z 21008KT 10SM FEW120 SCT150 SCT180 13/07 A3002 RMK AO2 SLP101 T01280072 10161 20100 53012 $
KDEN 151253Z 19003KT 10SM FEW140 SCT200 15/08 A3004 RMK AO2 SLP104 T01500078 $
KDEN 151353Z 28003KT 10SM FEW090 FEW140 SCT200 19/07 A3006 RMK AO2 SLP110 T01940072 $
KDEN 151453Z 02011KT 10SM FEW080 FEW140 SCT220 21/06 A3007 RMK AO2 SLP116 T02110056 51015 $
KDEN 151553Z 02012KT 10SM FEW080 FEW110 SCT220 22/06 A3007 RMK AO2 SLP115 T02220061 $
KDEN 151653Z 03012G18KT 10SM FEW080 FEW120 BKN220 23/07 A3008 RMK AO2 SLP117 TCU DSNT NW T02280067 $
KDEN 151753Z 02008G16KT 10SM SCT080 BKN220 24/06 A3008 RMK AO2 SLP116 TCU DSNT S-W T02390056 10239 20128 51003 $
KDEN 151853Z 04009KT 10SM SCT070 BKN220 25/06 A3006 RMK AO2 SLP106 CB DSNT S T02500056 $
KDEN 151953Z 02010G16KT 340V070 10SM SCT070 BKN200 26/06 A3006 RMK AO2 SLP104 T02560056 $



Page loaded:  20:30 UTC  |   01:30 PM Pacific  |   02:30 PM Mountain  |   03:30 PM Central  |   04:30 PM Eastern

 

ADVISORIES

FORECASTS

FORECASTS

OBSERVATIONS

USER TOOLS

ABOUT US